Vero Beach, Florida
Current Conditions -  °F | °C
As of 6:53 AM on Saturday 25 Oct 2014 (Local Time) from KVRB Reporting Station
Few Clouds Few Clouds  
Wind Chill: 62°   Ceiling: Unl
Heat Index: 62°   Visibility: 10mi
Dew Point: 59°   Wind: 9mph
Humidity: 90%   Direction: 320°NW
Pressure: 29.93"   Gusts: NA
Location:  27.64°N, 80.39°W
Report Text: KVRB 251053Z AUTO 32008KT 10SM FEW049 17/15 A2993 RMK AO2 SLP134 T01670150
Loading
Personal Weather Stations






























Interactive Weather Map
Tropical Storm Tracking
New forecast layout! Learn more

10-Day Weather Forecast

Advertisements
Track Severe Weather on mobile